sensor_id;sensor_type;location;lat;lon;timestamp;pressure;altitude;pressure_sealevel;temperature;humidity
56504;BME280;48812;51.606;-0.114;2023-05-22T00:11:30;101360.78;;;19.27;55.60
56504;BME280;48812;51.606;-0.114;2023-05-22T00:14:02;101366.94;;;19.29;55.50
56504;BME280;48812;51.606;-0.114;2023-05-22T00:16:35;101365.22;;;19.28;55.32
56504;BME280;48812;51.606;-0.114;2023-05-22T00:19:08;101375.88;;;19.30;55.36
56504;BME280;48812;51.606;-0.114;2023-05-22T00:21:44;101366.94;;;19.29;55.79
56504;BME280;48812;51.606;-0.114;2023-05-22T00:24:18;101365.22;;;19.28;55.97
56504;BME280;48812;51.606;-0.114;2023-05-22T00:26:51;101367.91;;;19.28;55.56
56504;BME280;48812;51.606;-0.114;2023-05-22T00:29:23;101367.91;;;19.28;55.61
56504;BME280;48812;51.606;-0.114;2023-05-22T00:31:56;101361.66;;;19.28;55.47
56504;BME280;48812;51.606;-0.114;2023-05-22T00:34:29;101358.09;;;19.27;55.54
56504;BME280;48812;51.606;-0.114;2023-05-22T00:37:02;101367.00;;;19.28;55.38
56504;BME280;48812;51.606;-0.114;2023-05-22T00:39:35;101359.91;;;19.27;55.52
56504;BME280;48812;51.606;-0.114;2023-05-22T00:42:08;101352.81;;;19.26;55.76
56504;BME280;48812;51.606;-0.114;2023-05-22T00:44:40;101348.41;;;19.25;55.62
56504;BME280;48812;51.606;-0.114;2023-05-22T00:47:13;101350.13;;;19.26;55.55
56504;BME280;48812;51.606;-0.114;2023-05-22T00:49:45;101355.50;;;19.26;55.48
56504;BME280;48812;51.606;-0.114;2023-05-22T00:52:18;101352.75;;;19.27;55.63
56504;BME280;48812;51.606;-0.114;2023-05-22T00:54:52;101351.09;;;19.25;55.61
56504;BME280;48812;51.606;-0.114;2023-05-22T00:57:25;101351.94;;;19.25;55.68
56504;BME280;48812;51.606;-0.114;2023-05-22T00:59:59;101354.63;;;19.25;55.81
56504;BME280;48812;51.606;-0.114;2023-05-22T01:02:32;101346.66;;;19.24;56.05
56504;BME280;48812;51.606;-0.114;2023-05-22T01:05:05;101350.19;;;19.24;56.20
56504;BME280;48812;51.606;-0.114;2023-05-22T01:07:38;101353.78;;;19.25;55.89
56504;BME280;48812;51.606;-0.114;2023-05-22T01:10:11;101343.97;;;19.24;55.75
56504;BME280;48812;51.606;-0.114;2023-05-22T01:13:08;101342.22;;;19.23;55.78
56504;BME280;48812;51.606;-0.114;2023-05-22T01:15:55;101335.06;;;19.23;56.09
56504;BME280;48812;51.606;-0.114;2023-05-22T01:27:41;101336.06;;;19.21;55.55
56504;BME280;48812;51.606;-0.114;2023-05-22T01:31:03;101328.94;;;19.20;55.93
56504;BME280;48812;51.606;-0.114;2023-05-22T01:33:47;101328.94;;;19.20;55.61
56504;BME280;48812;51.606;-0.114;2023-05-22T01:36:27;101331.63;;;19.20;55.81
56504;BME280;48812;51.606;-0.114;2023-05-22T01:39:04;101329.91;;;19.19;55.84
56504;BME280;48812;51.606;-0.114;2023-05-22T01:41:39;101332.59;;;19.19;55.46
56504;BME280;48812;51.606;-0.114;2023-05-22T01:44:12;101332.59;;;19.19;55.31
56504;BME280;48812;51.606;-0.114;2023-05-22T01:46:44;101326.38;;;19.18;55.63
56504;BME280;48812;51.606;-0.114;2023-05-22T01:49:19;101333.44;;;19.19;56.12
56504;BME280;48812;51.606;-0.114;2023-05-22T01:54:31;101321.94;;;19.17;55.92
56504;BME280;48812;51.606;-0.114;2023-05-22T01:57:27;101322.88;;;19.16;56.03
56504;BME280;48812;51.606;-0.114;2023-05-22T02:00:03;101320.25;;;19.14;55.98
56504;BME280;48812;51.606;-0.114;2023-05-22T02:02:48;101324.81;;;19.12;55.26
56504;BME280;48812;51.606;-0.114;2023-05-22T02:05:22;101332.00;;;19.12;55.87
56504;BME280;48812;51.606;-0.114;2023-05-22T02:07:55;101321.28;;;19.12;55.92
56504;BME280;48812;51.606;-0.114;2023-05-22T02:10:29;101324.88;;;19.11;55.88
56504;BME280;48812;51.606;-0.114;2023-05-22T02:13:02;101320.56;;;19.08;55.79
56504;BME280;48812;51.606;-0.114;2023-05-22T02:15:35;101323.31;;;19.07;55.04
56504;BME280;48812;51.606;-0.114;2023-05-22T02:18:11;101322.41;;;19.06;55.65
56504;BME280;48812;51.606;-0.114;2023-05-22T02:20:47;101315.31;;;19.05;55.76
56504;BME280;48812;51.606;-0.114;2023-05-22T02:23:19;101318.94;;;19.04;55.26
56504;BME280;48812;51.606;-0.114;2023-05-22T02:25:51;101315.47;;;19.02;55.75
56504;BME280;48812;51.606;-0.114;2023-05-22T02:28:24;101314.59;;;19.02;55.52
56504;BME280;48812;51.606;-0.114;2023-05-22T02:30:56;101311.03;;;19.01;55.51
56504;BME280;48812;51.606;-0.114;2023-05-22T02:33:28;101309.31;;;19.00;55.46
56504;BME280;48812;51.606;-0.114;2023-05-22T02:36:01;101306.63;;;19.00;55.61
56504;BME280;48812;51.606;-0.114;2023-05-22T02:38:34;101304.88;;;18.99;55.60
56504;BME280;48812;51.606;-0.114;2023-05-22T02:41:06;101312.06;;;18.98;55.41
56504;BME280;48812;51.606;-0.114;2023-05-22T02:43:38;101303.13;;;18.98;55.09
56504;BME280;48812;51.606;-0.114;2023-05-22T02:46:11;101306.75;;;18.97;55.79
56504;BME280;48812;51.606;-0.114;2023-05-22T02:48:43;101306.75;;;18.97;55.12
56504;BME280;48812;51.606;-0.114;2023-05-22T02:51:16;101298.78;;;18.95;55.24
56504;BME280;48812;51.606;-0.114;2023-05-22T02:53:48;101304.16;;;18.95;55.83
56504;BME280;48812;51.606;-0.114;2023-05-22T02:56:20;101311.28;;;18.95;55.06
56504;BME280;48812;51.606;-0.114;2023-05-22T02:58:53;101313.13;;;18.94;55.54
56504;BME280;48812;51.606;-0.114;2023-05-22T03:01:25;101306.03;;;18.93;55.85
56504;BME280;48812;51.606;-0.114;2023-05-22T03:03:58;101306.03;;;18.93;55.13
56504;BME280;48812;51.606;-0.114;2023-05-22T03:06:30;101298.06;;;18.92;55.59
56504;BME280;48812;51.606;-0.114;2023-05-22T03:09:03;101298.06;;;18.92;55.30
56504;BME280;48812;51.606;-0.114;2023-05-22T03:11:35;101290.09;;;18.90;55.63
56504;BME280;48812;51.606;-0.114;2023-05-22T03:14:07;101288.28;;;18.91;55.83
56504;BME280;48812;51.606;-0.114;2023-05-22T03:16:40;101296.31;;;18.91;55.58
56504;BME280;48812;51.606;-0.114;2023-05-22T03:19:13;101295.44;;;18.90;55.63
56504;BME280;48812;51.606;-0.114;2023-05-22T03:21:45;101290.16;;;18.89;55.68
56504;BME280;48812;51.606;-0.114;2023-05-22T03:24:21;101299.06;;;18.89;55.55
56504;BME280;48812;51.606;-0.114;2023-05-22T03:26:53;101285.72;;;18.88;55.57
56504;BME280;48812;51.606;-0.114;2023-05-22T03:29:35;101291.09;;;18.88;55.56
56504;BME280;48812;51.606;-0.114;2023-05-22T03:32:08;101290.22;;;18.87;55.26
56504;BME280;48812;51.606;-0.114;2023-05-22T03:34:41;101285.78;;;18.86;55.07
56504;BME280;48812;51.606;-0.114;2023-05-22T03:37:16;101290.28;;;18.86;55.34
56504;BME280;48812;51.606;-0.114;2023-05-22T03:39:48;101296.56;;;18.85;55.13
56504;BME280;48812;51.606;-0.114;2023-05-22T03:42:29;101283.19;;;18.85;55.28
56504;BME280;48812;51.606;-0.114;2023-05-22T03:45:01;101284.13;;;18.84;55.71
56504;BME280;48812;51.606;-0.114;2023-05-22T03:47:34;101284.13;;;18.84;55.42
56504;BME280;48812;51.606;-0.114;2023-05-22T03:50:06;101287.75;;;18.83;55.20
56504;BME280;48812;51.606;-0.114;2023-05-22T03:52:39;101290.44;;;18.83;55.42
56504;BME280;48812;51.606;-0.114;2023-05-22T03:55:11;101286.88;;;18.82;55.81
56504;BME280;48812;51.606;-0.114;2023-05-22T03:57:43;101280.63;;;18.82;55.46
56504;BME280;48812;51.606;-0.114;2023-05-22T04:00:15;101291.34;;;18.82;55.32
56504;BME280;48812;51.606;-0.114;2023-05-22T04:02:50;101289.63;;;18.81;55.34
56504;BME280;48812;51.606;-0.114;2023-05-22T04:05:22;101285.13;;;18.81;55.64
56504;BME280;48812;51.606;-0.114;2023-05-22T04:07:55;101281.66;;;18.79;55.96
56504;BME280;48812;51.606;-0.114;2023-05-22T04:10:31;101285.25;;;18.78;55.62
56504;BME280;48812;51.606;-0.114;2023-05-22T04:13:04;101286.13;;;18.78;55.14
56504;BME280;48812;51.606;-0.114;2023-05-22T04:15:37;101291.47;;;18.78;55.05
56504;BME280;48812;51.606;-0.114;2023-05-22T04:18:14;101297.78;;;18.77;56.01
56504;BME280;48812;51.606;-0.114;2023-05-22T04:20:46;101294.16;;;18.78;55.73
56504;BME280;48812;51.606;-0.114;2023-05-22T04:23:19;101288.91;;;18.77;55.51
56504;BME280;48812;51.606;-0.114;2023-05-22T04:25:52;101298.72;;;18.76;55.30
56504;BME280;48812;51.606;-0.114;2023-05-22T04:28:24;101292.56;;;18.74;55.80
56504;BME280;48812;51.606;-0.114;2023-05-22T04:30:57;101291.66;;;18.75;55.64
56504;BME280;48812;51.606;-0.114;2023-05-22T04:33:29;101289.88;;;18.74;55.35
56504;BME280;48812;51.606;-0.114;2023-05-22T04:36:05;101297.00;;;18.75;55.68
56504;BME280;48812;51.606;-0.114;2023-05-22T04:38:37;101289.88;;;18.74;55.54
56504;BME280;48812;51.606;-0.114;2023-05-22T04:41:15;101289.88;;;18.74;55.83
56504;BME280;48812;51.606;-0.114;2023-05-22T04:43:52;101293.50;;;18.73;55.44
56504;BME280;48812;51.606;-0.114;2023-05-22T04:46:24;101293.50;;;18.73;55.36
56504;BME280;48812;51.606;-0.114;2023-05-22T04:48:57;101296.19;;;18.73;55.47
56504;BME280;48812;51.606;-0.114;2023-05-22T04:51:33;101296.19;;;18.73;55.85
56504;BME280;48812;51.606;-0.114;2023-05-22T04:54:06;101291.78;;;18.72;55.58
56504;BME280;48812;51.606;-0.114;2023-05-22T04:56:38;101291.78;;;18.72;55.51
56504;BME280;48812;51.606;-0.114;2023-05-22T04:59:11;101298.00;;;18.73;56.00
56504;BME280;48812;51.606;-0.114;2023-05-22T05:01:48;101293.56;;;18.72;55.26
56504;BME280;48812;51.606;-0.114;2023-05-22T05:04:21;101298.06;;;18.71;55.43
56504;BME280;48812;51.606;-0.114;2023-05-22T05:06:53;101298.06;;;18.71;55.38
56504;BME280;48812;51.606;-0.114;2023-05-22T05:09:26;101301.59;;;18.72;55.52
56504;BME280;48812;51.606;-0.114;2023-05-22T05:11:58;101304.28;;;18.72;55.57
56504;BME280;48812;51.606;-0.114;2023-05-22T05:14:30;101303.41;;;18.71;55.77
56504;BME280;48812;51.606;-0.114;2023-05-22T05:17:03;101307.84;;;18.72;55.78
56504;BME280;48812;51.606;-0.114;2023-05-22T05:19:37;101306.09;;;18.71;55.83
56504;BME280;48812;51.606;-0.114;2023-05-22T05:22:09;101306.09;;;18.71;55.63
56504;BME280;48812;51.606;-0.114;2023-05-22T05:24:41;101306.09;;;18.71;55.62
56504;BME280;48812;51.606;-0.114;2023-05-22T05:27:14;101305.16;;;18.72;55.41
56504;BME280;48812;51.606;-0.114;2023-05-22T05:29:48;101319.41;;;18.73;55.81
56504;BME280;48812;51.606;-0.114;2023-05-22T05:32:30;101307.84;;;18.72;55.56
56504;BME280;48812;51.606;-0.114;2023-05-22T05:35:25;101306.09;;;18.71;55.58
56504;BME280;48812;51.606;-0.114;2023-05-22T05:38:12;101313.22;;;18.72;55.64
56504;BME280;48812;51.606;-0.114;2023-05-22T05:40:47;101319.41;;;18.73;55.17
56504;BME280;48812;51.606;-0.114;2023-05-22T05:43:20;101316.81;;;18.71;55.70
56504;BME280;48812;51.606;-0.114;2023-05-22T05:45:54;101317.66;;;18.72;55.56
56504;BME280;48812;51.606;-0.114;2023-05-22T05:48:28;101318.56;;;18.72;55.60
56504;BME280;48812;51.606;-0.114;2023-05-22T05:51:01;101314.94;;;18.73;55.48
56504;BME280;48812;51.606;-0.114;2023-05-22T05:53:38;101307.84;;;18.72;55.72
56504;BME280;48812;51.606;-0.114;2023-05-22T05:56:12;101310.53;;;18.72;55.92
56504;BME280;48812;51.606;-0.114;2023-05-22T05:58:45;101308.72;;;18.73;55.42
56504;BME280;48812;51.606;-0.114;2023-05-22T06:01:34;101302.50;;;18.72;55.43
56504;BME280;48812;51.606;-0.114;2023-05-22T06:04:07;101301.59;;;18.72;55.84
56504;BME280;48812;51.606;-0.114;2023-05-22T06:06:41;101307.84;;;18.72;55.52
56504;BME280;48812;51.606;-0.114;2023-05-22T06:09:15;101302.50;;;18.72;55.98
56504;BME280;48812;51.606;-0.114;2023-05-22T06:12:06;101297.13;;;18.72;56.40
56504;BME280;48812;51.606;-0.114;2023-05-22T06:14:38;101306.09;;;18.71;55.45
56504;BME280;48812;51.606;-0.114;2023-05-22T06:17:14;101310.53;;;18.72;55.41
56504;BME280;48812;51.606;-0.114;2023-05-22T06:19:47;101307.84;;;18.72;55.78
56504;BME280;48812;51.606;-0.114;2023-05-22T06:22:21;101307.84;;;18.72;56.13
56504;BME280;48812;51.606;-0.114;2023-05-22T06:24:57;101313.22;;;18.72;55.60
56504;BME280;48812;51.606;-0.114;2023-05-22T06:27:31;101320.28;;;18.73;55.68
56504;BME280;48812;51.606;-0.114;2023-05-22T06:30:04;101323.78;;;18.75;55.88
56504;BME280;48812;51.606;-0.114;2023-05-22T06:32:42;101322.03;;;18.74;55.93
56504;BME280;48812;51.606;-0.114;2023-05-22T06:35:14;101322.84;;;18.76;55.45
56504;BME280;48812;51.606;-0.114;2023-05-22T06:37:47;101321.91;;;18.77;55.64
56504;BME280;48812;51.606;-0.114;2023-05-22T06:40:20;101329.88;;;18.79;55.88
56504;BME280;48812;51.606;-0.114;2023-05-22T06:42:56;101333.41;;;18.79;55.80
56504;BME280;48812;51.606;-0.114;2023-05-22T06:45:51;101341.38;;;18.81;55.62
56504;BME280;48812;51.606;-0.114;2023-05-22T06:48:23;101337.84;;;18.81;55.32
56504;BME280;48812;51.606;-0.114;2023-05-22T06:51:14;101340.47;;;18.82;55.93
56504;BME280;48812;51.606;-0.114;2023-05-22T06:53:51;101336.81;;;18.83;55.32
56504;BME280;48812;51.606;-0.114;2023-05-22T06:56:28;101343.94;;;18.84;55.54
56504;BME280;48812;51.606;-0.114;2023-05-22T06:59:03;101351.91;;;18.86;55.76
56504;BME280;48812;51.606;-0.114;2023-05-22T07:02:06;101353.63;;;18.87;55.70
56504;BME280;48812;51.606;-0.114;2023-05-22T07:04:57;101352.66;;;18.89;55.42
56504;BME280;48812;51.606;-0.114;2023-05-22T07:07:43;101364.22;;;18.90;55.57
56504;BME280;48812;51.606;-0.114;2023-05-22T07:10:17;101362.38;;;18.92;55.47
56504;BME280;48812;51.606;-0.114;2023-05-22T07:12:50;101367.72;;;18.92;56.16
56504;BME280;48812;51.606;-0.114;2023-05-22T07:15:22;101363.22;;;18.92;55.90
56504;BME280;48812;51.606;-0.114;2023-05-22T07:17:59;101363.16;;;18.94;55.88
56504;BME280;48812;51.606;-0.114;2023-05-22T07:20:31;101371.19;;;18.94;55.91
56504;BME280;48812;51.606;-0.114;2023-05-22T07:23:25;101378.28;;;18.95;56.12
56504;BME280;48812;51.606;-0.114;2023-05-22T07:25:58;101380.91;;;18.96;55.46
56504;BME280;48812;51.606;-0.114;2023-05-22T07:28:37;101386.25;;;18.96;55.52
56504;BME280;48812;51.606;-0.114;2023-05-22T07:31:17;101387.16;;;18.97;56.13
56504;BME280;48812;51.606;-0.114;2023-05-22T07:33:50;101386.19;;;18.98;55.53
56504;BME280;48812;51.606;-0.114;2023-05-22T07:36:22;101388.88;;;18.98;55.56
56504;BME280;48812;51.606;-0.114;2023-05-22T07:38:55;101388.00;;;18.97;55.99
56504;BME280;48812;51.606;-0.114;2023-05-22T07:41:28;101388.88;;;18.98;55.43
56504;BME280;48812;51.606;-0.114;2023-05-22T07:44:02;101392.50;;;18.97;55.51
56504;BME280;48812;51.606;-0.114;2023-05-22T07:46:39;101404.97;;;18.98;56.18
56504;BME280;48812;51.606;-0.114;2023-05-22T07:49:15;101399.59;;;18.98;55.70
56504;BME280;48812;51.606;-0.114;2023-05-22T07:51:51;101402.28;;;18.98;55.62
56504;BME280;48812;51.606;-0.114;2023-05-22T07:54:25;101405.84;;;18.98;55.65
56504;BME280;48812;51.606;-0.114;2023-05-22T07:56:58;101402.28;;;18.98;56.12
56504;BME280;48812;51.606;-0.114;2023-05-22T07:59:38;101404.97;;;18.98;55.55
56504;BME280;48812;51.606;-0.114;2023-05-22T08:02:10;101404.97;;;18.98;56.10
56504;BME280;48812;51.606;-0.114;2023-05-22T08:04:43;101418.34;;;18.98;55.87
56504;BME280;48812;51.606;-0.114;2023-05-22T08:07:15;101418.41;;;18.96;55.55
56504;BME280;48812;51.606;-0.114;2023-05-22T08:09:47;101415.81;;;18.95;55.79
56504;BME280;48812;51.606;-0.114;2023-05-22T08:12:22;101415.81;;;18.95;55.42
56504;BME280;48812;51.606;-0.114;2023-05-22T08:14:54;101417.63;;;18.94;55.83
56504;BME280;48812;51.606;-0.114;2023-05-22T08:17:26;101422.97;;;18.94;55.41
56504;BME280;48812;51.606;-0.114;2023-05-22T08:19:59;101415.00;;;18.93;55.80
56504;BME280;48812;51.606;-0.114;2023-05-22T08:22:32;101423.94;;;18.93;55.87
56504;BME280;48812;51.606;-0.114;2023-05-22T08:25:05;101435.53;;;18.94;55.37
56504;BME280;48812;51.606;-0.114;2023-05-22T08:27:37;101433.75;;;18.93;56.04
56504;BME280;48812;51.606;-0.114;2023-05-22T08:30:10;101432.03;;;18.92;55.30
56504;BME280;48812;51.606;-0.114;2023-05-22T08:32:42;101424.00;;;18.92;55.46
56504;BME280;48812;51.606;-0.114;2023-05-22T08:35:16;101429.34;;;18.92;55.59
56504;BME280;48812;51.606;-0.114;2023-05-22T08:37:48;101430.28;;;18.91;55.70
56504;BME280;48812;51.606;-0.114;2023-05-22T08:40:22;101433.81;;;18.91;55.82
56504;BME280;48812;51.606;-0.114;2023-05-22T08:42:55;101428.53;;;18.90;55.90
56504;BME280;48812;51.606;-0.114;2023-05-22T08:45:29;101431.22;;;18.90;55.62
56504;BME280;48812;51.606;-0.114;2023-05-22T08:48:05;101426.75;;;18.90;55.30
56504;BME280;48812;51.606;-0.114;2023-05-22T08:50:40;101432.16;;;18.89;55.51
56504;BME280;48812;51.606;-0.114;2023-05-22T08:53:14;101430.41;;;18.88;55.29
56504;BME280;48812;51.606;-0.114;2023-05-22T08:55:46;101435.78;;;18.88;55.62
56504;BME280;48812;51.606;-0.114;2023-05-22T08:58:20;101432.16;;;18.89;55.45
56504;BME280;48812;51.606;-0.114;2023-05-22T09:00:53;101437.53;;;18.89;55.77
56504;BME280;48812;51.606;-0.114;2023-05-22T09:03:30;101432.16;;;18.89;55.69
56504;BME280;48812;51.606;-0.114;2023-05-22T09:06:07;101430.34;;;18.89;55.96
56504;BME280;48812;51.606;-0.114;2023-05-22T09:08:41;101427.66;;;18.89;55.39
56504;BME280;48812;51.606;-0.114;2023-05-22T09:11:14;101427.59;;;18.91;56.05
56504;BME280;48812;51.606;-0.114;2023-05-22T09:13:48;101432.03;;;18.92;55.26
56504;BME280;48812;51.606;-0.114;2023-05-22T09:16:26;101431.97;;;18.93;56.06
56504;BME280;48812;51.606;-0.114;2023-05-22T09:18:58;101431.88;;;18.95;55.65
56504;BME280;48812;51.606;-0.114;2023-05-22T09:21:31;101430.03;;;18.97;55.93
56504;BME280;48812;51.606;-0.114;2023-05-22T09:24:06;101428.16;;;18.99;55.79
56504;BME280;48812;51.606;-0.114;2023-05-22T09:26:39;101424.53;;;19.00;55.41
56504;BME280;48812;51.606;-0.114;2023-05-22T09:29:11;101424.38;;;19.03;55.65
56504;BME280;48812;51.606;-0.114;2023-05-22T09:31:43;101428.81;;;19.04;55.74
56504;BME280;48812;51.606;-0.114;2023-05-22T09:34:18;101426.06;;;19.06;55.73
56504;BME280;48812;51.606;-0.114;2023-05-22T09:36:50;101431.38;;;19.07;55.88
56504;BME280;48812;51.606;-0.114;2023-05-22T09:39:25;101426.00;;;19.07;55.64
56504;BME280;48812;51.606;-0.114;2023-05-22T09:42:09;101433.06;;;19.10;55.83
56504;BME280;48812;51.606;-0.114;2023-05-22T09:44:47;101431.25;;;19.10;55.47
56504;BME280;48812;51.606;-0.114;2023-05-22T09:47:20;101429.34;;;19.12;55.67
56504;BME280;48812;51.606;-0.114;2023-05-22T09:49:56;101418.63;;;19.12;55.34
56504;BME280;48812;51.606;-0.114;2023-05-22T09:52:32;101431.13;;;19.13;55.10
56504;BME280;48812;51.606;-0.114;2023-05-22T09:55:06;101415.03;;;19.13;55.51
56504;BME280;48812;51.606;-0.114;2023-05-22T09:57:43;101423.00;;;19.15;55.85
56504;BME280;48812;51.606;-0.114;2023-05-22T10:00:15;101431.91;;;19.15;55.76
56504;BME280;48812;51.606;-0.114;2023-05-22T10:05:23;101429.09;;;19.19;55.66
56504;BME280;48812;51.606;-0.114;2023-05-22T10:08:23;101436.19;;;19.20;55.48
56504;BME280;48812;51.606;-0.114;2023-05-22T10:10:56;101428.97;;;19.22;55.86
56504;BME280;48812;51.606;-0.114;2023-05-22T10:13:29;101435.97;;;19.24;55.32
56504;BME280;48812;51.606;-0.114;2023-05-22T10:16:03;101429.69;;;19.25;55.46
56504;BME280;48812;51.606;-0.114;2023-05-22T10:18:38;101429.63;;;19.27;55.63
56504;BME280;48812;51.606;-0.114;2023-05-22T10:21:12;101435.78;;;19.29;55.20
56504;BME280;48812;51.606;-0.114;2023-05-22T10:23:46;101430.34;;;19.30;55.82
56504;BME280;48812;51.606;-0.114;2023-05-22T10:26:19;101421.31;;;19.33;55.89
56504;BME280;48812;51.606;-0.114;2023-05-22T10:28:56;101424.78;;;19.35;55.95
56504;BME280;48812;51.606;-0.114;2023-05-22T10:31:35;101422.94;;;19.37;55.78
56504;BME280;48812;51.606;-0.114;2023-05-22T10:34:32;101430.84;;;19.40;55.76
56504;BME280;48812;51.606;-0.114;2023-05-22T10:37:17;101430.78;;;19.42;55.81
56504;BME280;48812;51.606;-0.114;2023-05-22T10:39:53;101438.69;;;19.45;55.50
56504;BME280;48812;51.606;-0.114;2023-05-22T10:42:31;101439.50;;;19.47;55.77
56504;BME280;48812;51.606;-0.114;2023-05-22T10:45:07;101443.88;;;19.49;55.88
56504;BME280;48812;51.606;-0.114;2023-05-22T10:47:40;101438.44;;;19.51;55.35
56504;BME280;48812;51.606;-0.114;2023-05-22T10:50:13;101440.16;;;19.52;56.18
56504;BME280;48812;51.606;-0.114;2023-05-22T10:52:46;101437.47;;;19.52;55.66
56504;BME280;48812;51.606;-0.114;2023-05-22T10:55:18;101450.81;;;19.53;56.15
56504;BME280;48812;51.606;-0.114;2023-05-22T10:57:53;101448.19;;;19.52;55.98
56504;BME280;48812;51.606;-0.114;2023-05-22T11:00:29;101447.34;;;19.51;56.03
56504;BME280;48812;51.606;-0.114;2023-05-22T11:03:03;101440.22;;;19.50;56.12
56504;BME280;48812;51.606;-0.114;2023-05-22T11:05:51;101441.19;;;19.49;55.82
56504;BME280;48812;51.606;-0.114;2023-05-22T11:11:08;101447.47;;;19.48;55.82
56504;BME280;48812;51.606;-0.114;2023-05-22T11:13:41;101436.75;;;19.48;56.11
56504;BME280;48812;51.606;-0.114;2023-05-22T11:16:14;101438.50;;;19.49;55.90
56504;BME280;48812;51.606;-0.114;2023-05-22T11:18:47;101436.63;;;19.51;55.93
56504;BME280;48812;51.606;-0.114;2023-05-22T11:21:20;101438.28;;;19.54;55.84
56504;BME280;48812;51.606;-0.114;2023-05-22T11:23:53;101438.19;;;19.56;56.12
56504;BME280;48812;51.606;-0.114;2023-05-22T11:26:25;101431.84;;;19.58;55.84
56504;BME280;48812;51.606;-0.114;2023-05-22T11:28:59;101433.50;;;19.61;55.87
56504;BME280;48812;51.606;-0.114;2023-05-22T11:31:36;101428.06;;;19.62;55.85
56504;BME280;48812;51.606;-0.114;2023-05-22T11:34:10;101427.13;;;19.63;56.07
56504;BME280;48812;51.606;-0.114;2023-05-22T11:36:43;101428.88;;;19.64;55.78
56504;BME280;48812;51.606;-0.114;2023-05-22T11:39:15;101423.44;;;19.66;56.08
56504;BME280;48812;51.606;-0.114;2023-05-22T11:41:48;101428.66;;;19.69;55.62
56504;BME280;48812;51.606;-0.114;2023-05-22T11:44:20;101427.66;;;19.71;55.60
56504;BME280;48812;51.606;-0.114;2023-05-22T11:46:52;101423.16;;;19.72;55.99
56504;BME280;48812;51.606;-0.114;2023-05-22T11:49:26;101426.66;;;19.74;55.97
56504;BME280;48812;51.606;-0.114;2023-05-22T11:51:58;101424.75;;;19.76;55.90
56504;BME280;48812;51.606;-0.114;2023-05-22T11:54:33;101429.16;;;19.77;55.64
56504;BME280;48812;51.606;-0.114;2023-05-22T11:57:09;101424.75;;;19.76;55.79
56504;BME280;48812;51.606;-0.114;2023-05-22T11:59:46;101438.09;;;19.78;55.63
56504;BME280;48812;51.606;-0.114;2023-05-22T12:02:18;101424.69;;;19.78;55.64
56504;BME280;48812;51.606;-0.114;2023-05-22T12:04:55;101427.31;;;19.79;55.74
56504;BME280;48812;51.606;-0.114;2023-05-22T12:07:28;101419.25;;;19.79;55.71
56504;BME280;48812;51.606;-0.114;2023-05-22T12:10:03;101429.03;;;19.80;56.06
56504;BME280;48812;51.606;-0.114;2023-05-22T12:12:38;101430.78;;;19.81;55.98
56504;BME280;48812;51.606;-0.114;2023-05-22T12:15:10;101432.53;;;19.82;55.87
56504;BME280;48812;51.606;-0.114;2023-05-22T12:17:44;101426.22;;;19.83;55.58
56504;BME280;48812;51.606;-0.114;2023-05-22T12:20:17;101431.56;;;19.83;55.75
56504;BME280;48812;51.606;-0.114;2023-05-22T12:22:49;101431.50;;;19.85;55.68
56504;BME280;48812;51.606;-0.114;2023-05-22T12:25:22;101440.41;;;19.85;55.49
56504;BME280;48812;51.606;-0.114;2023-05-22T12:27:55;101437.66;;;19.87;55.60
56504;BME280;48812;51.606;-0.114;2023-05-22T12:30:37;101430.50;;;19.87;55.63
56504;BME280;48812;51.606;-0.114;2023-05-22T12:33:13;101438.47;;;19.89;55.54
56504;BME280;48812;51.606;-0.114;2023-05-22T12:35:49;101427.69;;;19.91;55.45
56504;BME280;48812;51.606;-0.114;2023-05-22T12:38:26;101433.91;;;19.91;55.56
56504;BME280;48812;51.606;-0.114;2023-05-22T12:40:58;101424.94;;;19.92;55.83
56504;BME280;48812;51.606;-0.114;2023-05-22T12:43:31;101427.50;;;19.94;55.46
56504;BME280;48812;51.606;-0.114;2023-05-22T12:46:03;101436.44;;;19.94;55.59
56504;BME280;48812;51.606;-0.114;2023-05-22T12:48:35;101438.16;;;19.95;55.51
56504;BME280;48812;51.606;-0.114;2023-05-22T12:51:08;101442.59;;;19.96;55.74
56504;BME280;48812;51.606;-0.114;2023-05-22T12:53:42;101438.16;;;19.95;55.39
56504;BME280;48812;51.606;-0.114;2023-05-22T12:56:14;101440.00;;;19.95;55.66
56504;BME280;48812;51.606;-0.114;2023-05-22T12:58:47;101434.63;;;19.95;55.36
56504;BME280;48812;51.606;-0.114;2023-05-22T13:01:20;101444.50;;;19.94;55.65
56504;BME280;48812;51.606;-0.114;2023-05-22T13:03:58;101449.94;;;19.93;55.28
56504;BME280;48812;51.606;-0.114;2023-05-22T13:06:31;101449.09;;;19.92;55.26
56504;BME280;48812;51.606;-0.114;2023-05-22T13:09:03;101437.44;;;19.92;55.33
56504;BME280;48812;51.606;-0.114;2023-05-22T13:11:38;101429.41;;;19.92;55.47
56504;BME280;48812;51.606;-0.114;2023-05-22T13:14:12;101436.53;;;19.93;55.39
56504;BME280;48812;51.606;-0.114;2023-05-22T13:16:46;101444.56;;;19.93;55.31
56504;BME280;48812;51.606;-0.114;2023-05-22T13:19:18;101443.59;;;19.94;55.22
56504;BME280;48812;51.606;-0.114;2023-05-22T13:21:55;101447.19;;;19.94;55.12
56504;BME280;48812;51.606;-0.114;2023-05-22T13:24:27;101446.22;;;19.95;55.16
56504;BME280;48812;51.606;-0.114;2023-05-22T13:26:59;101443.47;;;19.97;55.22
56504;BME280;48812;51.606;-0.114;2023-05-22T13:29:32;101437.97;;;20.00;55.26
56504;BME280;48812;51.606;-0.114;2023-05-22T13:32:05;101437.81;;;20.03;55.43
56504;BME280;48812;51.606;-0.114;2023-05-22T13:34:38;101449.22;;;20.08;55.40
56504;BME280;48812;51.606;-0.114;2023-05-22T13:37:14;101433.88;;;20.10;55.22
56504;BME280;48812;51.606;-0.114;2023-05-22T13:39:47;101424.75;;;20.14;54.90
56504;BME280;48812;51.606;-0.114;2023-05-22T13:42:21;101440.59;;;20.20;55.14
56504;BME280;48812;51.606;-0.114;2023-05-22T13:44:54;101434.03;;;20.26;55.14
56504;BME280;48812;51.606;-0.114;2023-05-22T13:47:26;101438.34;;;20.30;55.09